Time;durP1;ratioP1;P1;durP2;ratioP2;P2;SDS_P1;SDS_P2;PMS_P1;PMS_P2;Temp;Humidity;BMP_temperature;BMP_pressure;BME280_temperature;BME280_humidity;BME280_pressure;Samples;Min_cycle;Max_cycle;Signal;HPM_P1;HPM_P2
2023/12/13 05:30:30;;;;;;;0.10;0.10;;;9.10;86.60;;;;;;5847075;23;21392;-77
2023/12/13 05:32:56;;;;;;;0.10;0.10;;;9.10;86.70;;;;;;4901044;29;20119;-78
2023/12/13 05:35:21;;;;;;;0.10;0.10;;;9.10;86.70;;;;;;4915033;29;20072;-78
2023/12/13 05:37:47;;;;;;;0.10;0.10;;;9.20;86.70;;;;;;4885418;29;20033;-78
2023/12/13 05:40:13;;;;;;;0.10;0.10;;;9.20;86.70;;;;;;4902585;29;20027;-77
2023/12/13 05:42:39;;;;;;;0.10;0.10;;;9.20;86.70;;;;;;4918988;29;20095;-77
2023/12/13 05:45:05;;;;;;;0.10;0.10;;;9.20;86.60;;;;;;4910145;29;20037;-78
2023/12/13 05:47:32;;;;;;;0.10;0.10;;;9.30;86.60;;;;;;4900222;29;20076;-78
2023/12/13 05:49:57;;;;;;;0.10;0.10;;;9.30;86.60;;;;;;4899485;29;20198;-77
2023/12/13 05:52:23;;;;;;;0.10;0.10;;;9.20;86.70;;;;;;4899552;29;20071;-78
2023/12/13 05:54:49;;;;;;;0.10;0.10;;;9.20;86.80;;;;;;4900069;29;20025;-78
2023/12/13 05:57:15;;;;;;;0.10;0.10;;;9.30;86.80;;;;;;4900126;29;20071;-76
2023/12/13 05:59:40;;;;;;;0.10;0.10;;;9.30;86.70;;;;;;4899651;29;20459;-79
2023/12/13 06:02:06;;;;;;;0.10;0.10;;;9.30;86.70;;;;;;4882855;29;20405;-79
2023/12/13 06:04:32;;;;;;;0.10;0.10;;;9.30;86.70;;;;;;4887845;29;20204;-79
2023/12/13 06:06:58;;;;;;;0.10;0.10;;;9.30;86.70;;;;;;4900082;29;20107;-78
2023/12/13 06:09:24;;;;;;;0.10;0.10;;;9.30;86.80;;;;;;4899989;29;20033;-81
2023/12/13 06:11:49;;;;;;;0.10;0.10;;;9.40;86.70;;;;;;4899257;29;20032;-84
2023/12/13 06:14:15;;;;;;;0.10;0.10;;;9.40;86.70;;;;;;4897194;29;20436;-82
2023/12/13 06:16:40;;;;;;;0.10;0.10;;;9.40;86.60;;;;;;4900309;29;20411;-83
2023/12/13 06:19:06;;;;;;;0.10;0.10;;;9.40;86.60;;;;;;4899145;29;20111;-83
2023/12/13 06:21:33;;;;;;;0.10;0.10;;;9.50;86.50;;;;;;4899108;29;20039;-81
2023/12/13 06:24:00;;;;;;;0.10;0.10;;;9.50;86.60;;;;;;4888512;29;20028;-79
2023/12/13 06:26:26;;;;;;;0.10;0.10;;;9.50;86.40;;;;;;4892987;29;20918;-82
2023/12/13 06:28:52;;;;;;;0.10;0.10;;;9.50;86.60;;;;;;4882768;29;20056;-78
2023/12/13 06:31:18;;;;;;;0.10;0.10;;;9.40;86.50;;;;;;4898470;29;20057;-78
2023/12/13 06:33:43;;;;;;;0.10;0.10;;;9.40;86.60;;;;;;4899426;29;20029;-81
2023/12/13 06:36:09;;;;;;;0.10;0.10;;;9.40;86.60;;;;;;4899679;29;20589;-80
2023/12/13 06:38:35;;;;;;;0.10;0.10;;;9.40;86.60;;;;;;4900920;29;20029;-78
2023/12/13 06:41:00;;;;;;;0.10;0.10;;;9.30;86.50;;;;;;4913888;29;20032;-80
2023/12/13 06:43:26;;;;;;;0.10;0.10;;;9.30;86.60;;;;;;4905321;29;20483;-75
2023/12/13 06:45:51;;;;;;;0.10;0.10;;;9.30;86.50;;;;;;4922190;29;20119;-79
2023/12/13 06:48:17;;;;;;;0.10;0.10;;;9.30;86.50;;;;;;4901950;29;20539;-84
2023/12/13 06:50:43;;;;;;;0.10;0.10;;;9.30;86.70;;;;;;4897043;29;20033;-86
2023/12/13 06:53:09;;;;;;;0.10;0.10;;;9.20;86.50;;;;;;4900705;29;20028;-86
2023/12/13 06:55:35;;;;;;;0.10;0.10;;;9.30;86.80;;;;;;4901960;29;20061;-85
2023/12/13 06:58:00;;;;;;;0.10;0.10;;;9.30;86.70;;;;;;4901935;29;20507;-87
2023/12/13 07:00:27;;;;;;;0.10;0.10;;;9.30;86.80;;;;;;4902580;29;20040;-87
2023/12/13 07:02:53;;;;;;;0.10;0.10;;;9.30;86.70;;;;;;4886415;29;20033;-85
2023/12/13 07:05:19;;;;;;;0.10;0.10;;;9.30;86.80;;;;;;4886969;29;20052;-88
2023/12/13 07:07:46;;;;;;;0.10;0.10;;;9.30;86.70;;;;;;4882908;29;20038;-88
2023/12/13 07:10:13;;;;;;;0.10;0.10;;;9.30;86.70;;;;;;4896800;29;20035;-85
2023/12/13 07:12:39;;;;;;;0.10;0.10;;;9.30;86.60;;;;;;4903336;29;20049;-86
2023/12/13 07:15:08;;;;;;;0.10;0.10;;;9.30;86.70;;;;;;4882402;29;20108;-87
2023/12/13 07:17:33;;;;;;;0.10;0.10;;;9.30;86.60;;;;;;4883405;29;20113;-85
2023/12/13 07:19:59;;;;;;;0.10;0.10;;;9.30;86.70;;;;;;4884987;29;20029;-87
2023/12/13 07:22:25;;;;;;;0.10;0.10;;;9.30;86.70;;;;;;4890755;29;20024;-81
2023/12/13 07:24:50;;;;;;;0.10;0.10;;;9.30;86.70;;;;;;4901999;29;20033;-83
2023/12/13 07:27:16;;;;;;;0.10;0.10;;;9.30;86.50;;;;;;4902236;29;20025;-90
2023/12/13 07:29:42;;;;;;;0.15;0.15;;;9.30;86.60;;;;;;4873043;29;20467;-87
2023/12/13 07:32:09;;;;;;;0.10;0.10;;;9.30;86.60;;;;;;4880028;29;20108;-87
2023/12/13 07:34:36;;;;;;;0.10;0.10;;;9.30;86.60;;;;;;4899280;29;20029;-87
2023/12/13 07:37:02;;;;;;;0.10;0.10;;;9.30;86.50;;;;;;4903508;29;20060;-89
2023/12/13 07:39:30;;;;;;;0.10;0.10;;;9.30;86.50;;;;;;4902202;29;20495;-87
2023/12/13 07:41:56;;;;;;;0.10;0.10;;;9.30;86.50;;;;;;4910099;29;20048;-88
2023/12/13 07:44:22;;;;;;;0.10;0.10;;;9.20;86.60;;;;;;4903164;29;20061;-88
2023/12/13 07:46:48;;;;;;;0.10;0.10;;;9.20;86.60;;;;;;4902233;29;20392;-88
2023/12/13 07:49:13;;;;;;;0.10;0.10;;;9.10;86.60;;;;;;4902814;29;20039;-87
2023/12/13 07:51:39;;;;;;;0.10;0.10;;;9.10;86.70;;;;;;4889643;29;20060;-88
2023/12/13 07:54:05;;;;;;;0.10;0.10;;;9.00;86.80;;;;;;4884647;29;20041;-90
2023/12/13 07:56:30;;;;;;;0.10;0.10;;;9.00;86.70;;;;;;4885522;29;20085;-90
2023/12/13 07:58:57;;;;;;;0.10;0.10;;;8.90;86.80;;;;;;4901410;29;20051;-89
2023/12/13 08:01:22;;;;;;;0.10;0.10;;;9.00;86.70;;;;;;4903015;29;20475;-87
2023/12/13 08:03:48;;;;;;;0.10;0.10;;;9.00;87.00;;;;;;4901360;29;20025;-89
2023/12/13 08:06:15;;;;;;;0.10;0.10;;;9.10;86.80;;;;;;4901765;29;20036;-87
2023/12/13 08:08:41;;;;;;;0.10;0.10;;;9.20;86.90;;;;;;4901794;29;20044;-90
2023/12/13 08:11:08;;;;;;;0.10;0.10;;;9.20;86.80;;;;;;4901983;29;20126;-88
2023/12/13 08:13:34;;;;;;;0.10;0.10;;;9.20;86.70;;;;;;4901385;29;20036;-88
2023/12/13 08:16:00;;;;;;;0.10;0.10;;;9.20;86.70;;;;;;4917199;29;20037;-89
2023/12/13 08:18:26;;;;;;;0.10;0.10;;;9.30;86.70;;;;;;4901267;29;20095;-89
2023/12/13 08:20:52;;;;;;;0.10;0.10;;;9.30;86.80;;;;;;4901656;29;20119;-90
2023/12/13 08:23:17;;;;;;;0.10;0.10;;;9.40;86.70;;;;;;4901500;29;20062;-90
2023/12/13 08:25:43;;;;;;;0.10;0.10;;;9.50;86.70;;;;;;4901339;29;20093;-89
2023/12/13 08:28:09;;;;;;;0.10;0.10;;;9.40;86.60;;;;;;4900733;29;20060;-90
2023/12/13 08:30:35;;;;;;;0.10;0.10;;;9.40;86.60;;;;;;4901457;29;20056;-90
2023/12/13 08:33:01;;;;;;;0.10;0.10;;;9.30;86.60;;;;;;4900175;29;20555;-86
2023/12/13 08:35:28;;;;;;;0.10;0.10;;;9.30;86.60;;;;;;4901318;29;20032;-91
2023/12/13 08:37:54;;;;;;;0.10;0.10;;;9.30;86.70;;;;;;4898968;29;20612;-91
2023/12/13 08:40:20;;;;;;;0.10;0.10;;;9.20;86.70;;;;;;4894059;29;20097;-90
2023/12/13 08:42:46;;;;;;;0.10;0.10;;;9.20;86.70;;;;;;4905767;29;20123;-90
2023/12/13 08:45:12;;;;;;;0.10;0.10;;;9.10;86.70;;;;;;4902154;29;20029;-91
2023/12/13 08:47:38;;;;;;;0.10;0.10;;;9.10;86.80;;;;;;4901116;29;20032;-91
2023/12/13 08:50:05;;;;;;;0.10;0.10;;;9.10;86.90;;;;;;4892343;29;20033;-91
2023/12/13 08:52:30;;;;;;;0.10;0.10;;;9.10;86.90;;;;;;4883819;29;20058;-89
2023/12/13 08:54:56;;;;;;;0.10;0.10;;;9.10;86.90;;;;;;4882315;29;20450;-90
2023/12/13 08:57:22;;;;;;;0.10;0.10;;;9.10;86.90;;;;;;4868892;29;20041;-91
2023/12/13 08:59:47;;;;;;;0.10;0.10;;;9.10;86.90;;;;;;4881700;29;20044;-90
2023/12/13 09:02:13;;;;;;;0.10;0.10;;;9.20;87.00;;;;;;4897942;29;20404;-89
2023/12/13 09:04:38;;;;;;;0.20;0.20;;;9.20;87.00;;;;;;4898338;29;20084;-90
2023/12/13 09:07:04;;;;;;;0.10;0.10;;;9.30;86.90;;;;;;4897325;29;20036;-90
2023/12/13 09:09:32;;;;;;;0.10;0.10;;;9.30;86.90;;;;;;4883290;29;20029;-90
2023/12/13 09:12:01;;;;;;;0.10;0.10;;;9.40;86.80;;;;;;4883193;29;20036;-91
2023/12/13 09:14:27;;;;;;;0.10;0.10;;;9.60;86.80;;;;;;4898180;29;20093;-90
2023/12/13 09:16:53;;;;;;;0.10;0.10;;;9.70;86.80;;;;;;4900766;29;20597;-90
2023/12/13 09:19:19;;;;;;;0.10;0.10;;;9.80;86.60;;;;;;4901805;29;20028;-91
2023/12/13 09:21:44;;;;;;;0.10;0.10;;;10.00;86.60;;;;;;4896370;29;20076;-90
2023/12/13 09:24:10;;;;;;;0.10;0.10;;;10.20;86.40;;;;;;4897099;29;20028;-90
2023/12/13 09:26:37;;;;;;;0.10;0.10;;;10.20;86.30;;;;;;4897638;29;20097;-88
2023/12/13 09:29:03;;;;;;;0.10;0.10;;;10.20;86.20;;;;;;4883656;29;20021;-88
2023/12/13 09:31:29;;;;;;;0.10;0.10;;;10.20;86.30;;;;;;4882675;29;20061;-92
2023/12/13 09:33:54;;;;;;;0.10;0.10;;;10.20;86.40;;;;;;4875284;29;20039;-87
2023/12/13 09:36:21;;;;;;;0.10;0.10;;;10.20;86.50;;;;;;4884570;29;20040;-88
2023/12/13 09:38:47;;;;;;;0.10;0.10;;;10.20;86.70;;;;;;4884534;29;20033;-89
2023/12/13 09:41:20;;;;;;;0.10;0.10;;;10.20;86.70;;;;;;4913976;29;20150;-88
2023/12/13 09:43:46;;;;;;;0.10;0.10;;;10.20;86.80;;;;;;4884366;29;20120;-90
2023/12/13 09:46:13;;;;;;;0.10;0.10;;;10.20;86.80;;;;;;4884492;29;20060;-88
2023/12/13 09:48:40;;;;;;;0.10;0.10;;;10.20;86.70;;;;;;4884176;29;20448;-90
2023/12/13 09:51:07;;;;;;;0.10;0.10;;;10.30;86.80;;;;;;4884308;29;20032;-91
2023/12/13 09:53:34;;;;;;;0.10;0.10;;;10.30;86.80;;;;;;4884729;29;20041;-90
2023/12/13 09:56:01;;;;;;;0.10;0.10;;;10.30;86.70;;;;;;4885699;29;20464;-90
2023/12/13 09:58:27;;;;;;;0.10;0.10;;;10.30;86.70;;;;;;4881373;29;20025;-90
2023/12/13 10:00:52;;;;;;;0.10;0.10;;;10.40;86.80;;;;;;4865746;29;20033;-91
2023/12/13 10:03:18;;;;;;;0.10;0.10;;;10.50;86.80;;;;;;4890342;29;20033;-89
2023/12/13 10:05:45;;;;;;;0.10;0.10;;;10.60;86.80;;;;;;4886253;29;20037;-87
2023/12/13 10:08:11;;;;;;;0.10;0.10;;;10.80;86.70;;;;;;4866249;29;20036;-89
2023/12/13 10:10:37;;;;;;;0.10;0.10;;;10.90;86.60;;;;;;4865872;29;20021;-89
2023/12/13 10:13:03;;;;;;;0.10;0.10;;;10.90;86.50;;;;;;4864563;29;20385;-88
2023/12/13 10:15:32;;;;;;;0.10;0.10;;;11.00;86.50;;;;;;4882434;29;20029;-89
2023/12/13 10:17:59;;;;;;;0.10;0.10;;;10.90;86.50;;;;;;4880746;29;20029;-87
2023/12/13 10:20:26;;;;;;;0.10;0.10;;;11.00;86.40;;;;;;4865512;29;20033;-88
2023/12/13 10:22:52;;;;;;;0.10;0.10;;;10.80;86.30;;;;;;4876990;29;20080;-90
2023/12/13 10:25:22;;;;;;;0.10;0.10;;;10.80;86.50;;;;;;4883833;29;20033;-89
2023/12/13 10:27:51;;;;;;;0.10;0.10;;;10.80;86.50;;;;;;4900219;29;20028;-89
2023/12/13 10:30:18;;;;;;;0.10;0.10;;;10.90;86.60;;;;;;4900579;29;20024;-89
2023/12/13 10:32:44;;;;;;;0.10;0.10;;;11.00;86.60;;;;;;4880147;29;20038;-89
2023/12/13 10:35:10;;;;;;;0.10;0.10;;;11.00;86.60;;;;;;4900541;29;20403;-87
2023/12/13 10:37:36;;;;;;;0.10;0.10;;;11.20;86.50;;;;;;4885553;29;20508;-87
2023/12/13 10:40:04;;;;;;;0.10;0.10;;;11.40;86.10;;;;;;4880720;29;20476;-88
2023/12/13 10:42:31;;;;;;;0.10;0.10;;;11.50;86.00;;;;;;4882026;29;20036;-86
2023/12/13 10:44:59;;;;;;;0.10;0.10;;;11.50;85.90;;;;;;4871767;29;20068;-88
2023/12/13 10:47:25;;;;;;;0.03;0.03;;;11.60;85.70;;;;;;4900449;29;20392;-87
2023/12/13 10:49:55;;;;;;;0.00;0.00;;;11.60;85.80;;;;;;4900686;29;20020;-86
2023/12/13 10:52:22;;;;;;;0.10;0.10;;;11.50;85.60;;;;;;4887707;29;20059;-86
2023/12/13 10:54:49;;;;;;;0.10;0.10;;;11.40;85.80;;;;;;4900278;29;20085;-87
2023/12/13 10:57:15;;;;;;;0.10;0.10;;;11.40;85.90;;;;;;4883715;29;20061;-87
2023/12/13 10:59:42;;;;;;;0.10;0.10;;;11.40;85.90;;;;;;4900220;29;20039;-87
2023/12/13 11:02:10;;;;;;;0.08;0.08;;;11.40;85.90;;;;;;4882691;29;20172;-89
2023/12/13 11:04:37;;;;;;;0.10;0.10;;;11.30;86.00;;;;;;4883720;29;20037;-87
2023/12/13 11:07:06;;;;;;;0.10;0.10;;;11.30;86.10;;;;;;4883565;29;20029;-85
2023/12/13 11:09:32;;;;;;;0.10;0.10;;;11.30;86.20;;;;;;4880069;29;20043;-87
2023/12/13 11:12:09;;;;;;;0.10;0.10;;;11.30;86.10;;;;;;4881621;29;20025;-88
2023/12/13 11:14:35;;;;;;;0.10;0.10;;;11.30;86.20;;;;;;4865109;29;20105;-87
2023/12/13 11:17:01;;;;;;;0.10;0.10;;;11.40;86.00;;;;;;4890460;29;20535;-87
2023/12/13 11:19:27;;;;;;;0.10;0.10;;;11.40;86.10;;;;;;4897063;29;20040;-87
2023/12/13 11:21:56;;;;;;;0.10;0.10;;;11.50;85.80;;;;;;4899656;29;20107;-87
2023/12/13 11:24:25;;;;;;;0.10;0.10;;;11.60;85.70;;;;;;4885890;29;20025;-85
2023/12/13 11:26:55;;;;;;;0.10;0.10;;;11.60;85.50;;;;;;4882779;29;20041;-86
2023/12/13 11:29:33;;;;;;;0.10;0.10;;;11.70;85.60;;;;;;4884693;29;20034;-86
2023/12/13 11:32:03;;;;;;;0.10;0.10;;;11.70;85.40;;;;;;4884523;29;20105;-87
2023/12/13 11:34:32;;;;;;;0.10;0.10;;;11.80;85.50;;;;;;4897204;29;20032;-86
2023/12/13 11:37:08;;;;;;;0.10;0.10;;;11.80;85.40;;;;;;4886475;29;20027;-85
2023/12/13 11:39:35;;;;;;;0.10;0.10;;;11.80;84.80;;;;;;4902859;29;20029;-86
2023/12/13 11:42:03;;;;;;;0.10;0.10;;;11.80;85.10;;;;;;4904918;29;20059;-89
2023/12/13 11:44:30;;;;;;;0.10;0.10;;;11.80;85.20;;;;;;4905244;29;20024;-86
2023/12/13 11:46:58;;;;;;;0.10;0.10;;;11.90;85.10;;;;;;4917219;29;20025;-85
2023/12/13 11:49:25;;;;;;;0.10;0.10;;;11.80;84.50;;;;;;4903036;29;20040;-86
2023/12/13 11:51:54;;;;;;;0.10;0.10;;;11.80;84.50;;;;;;4882976;29;20062;-86
2023/12/13 11:54:19;;;;;;;0.10;0.10;;;11.80;84.60;;;;;;4867552;29;20484;-86
2023/12/13 11:56:45;;;;;;;0.10;0.10;;;11.80;84.50;;;;;;4867499;29;20088;-86
2023/12/13 11:59:11;;;;;;;0.10;0.10;;;11.90;84.50;;;;;;4885782;29;20090;-85
2023/12/13 12:01:37;;;;;;;0.10;0.10;;;11.90;84.50;;;;;;4885545;29;20035;-80
2023/12/13 12:04:03;;;;;;;0.10;0.10;;;12.00;84.50;;;;;;4901258;29;20033;-79
2023/12/13 12:06:29;;;;;;;0.10;0.10;;;12.00;84.30;;;;;;4885931;29;20032;-80
2023/12/13 12:08:55;;;;;;;0.10;0.10;;;12.10;84.40;;;;;;4902705;29;20455;-79
2023/12/13 12:11:21;;;;;;;0.10;0.10;;;12.30;84.20;;;;;;4902087;29;20033;-80
2023/12/13 12:13:48;;;;;;;0.10;0.10;;;12.40;83.50;;;;;;4902698;29;20107;-80
2023/12/13 12:16:14;;;;;;;0.10;0.10;;;12.40;83.20;;;;;;4901937;29;20044;-80
2023/12/13 12:18:41;;;;;;;0.10;0.10;;;12.40;83.00;;;;;;4902628;29;20033;-79
2023/12/13 12:21:11;;;;;;;0.10;0.10;;;12.30;82.80;;;;;;4902370;29;20029;-80
2023/12/13 12:23:41;;;;;;;0.10;0.10;;;12.30;83.30;;;;;;4901875;29;20028;-80
2023/12/13 12:26:11;;;;;;;0.10;0.10;;;12.30;83.40;;;;;;4885575;29;20024;-80
2023/12/13 12:28:39;;;;;;;0.10;0.10;;;12.40;83.20;;;;;;4902286;29;20029;-80
2023/12/13 12:31:05;;;;;;;0.10;0.10;;;12.30;83.00;;;;;;4901898;29;20164;-80
2023/12/13 12:33:31;;;;;;;0.10;0.10;;;12.30;83.00;;;;;;4901418;29;20068;-79
2023/12/13 12:35:59;;;;;;;0.10;0.10;;;12.20;82.30;;;;;;4884553;29;20096;-80
2023/12/13 12:38:25;;;;;;;0.10;0.10;;;12.10;82.70;;;;;;4902226;29;20032;-80
2023/12/13 12:40:51;;;;;;;0.10;0.10;;;12.20;83.10;;;;;;4911850;29;20487;-80
2023/12/13 12:43:19;;;;;;;0.10;0.10;;;12.20;82.90;;;;;;4901601;29;20036;-80
2023/12/13 12:45:45;;;;;;;0.10;0.10;;;12.20;82.60;;;;;;4885475;29;20440;-80
2023/12/13 12:48:10;;;;;;;0.10;0.10;;;12.20;82.70;;;;;;4884972;29;20037;-80
2023/12/13 12:50:36;;;;;;;0.10;0.10;;;12.20;82.90;;;;;;4884751;29;20077;-80
2023/12/13 12:53:02;;;;;;;0.10;0.10;;;12.30;82.60;;;;;;4901684;29;20032;-80
2023/12/13 12:55:28;;;;;;;0.10;0.10;;;12.30;82.60;;;;;;4894394;29;20040;-80
2023/12/13 12:57:53;;;;;;;0.10;0.10;;;12.30;82.10;;;;;;4883009;29;20032;-80
2023/12/13 13:00:20;;;;;;;0.10;0.10;;;12.40;82.20;;;;;;4889880;29;20037;-80
2023/12/13 13:02:47;;;;;;;0.10;0.10;;;12.40;82.30;;;;;;4883278;29;20033;-79
2023/12/13 13:05:13;;;;;;;0.10;0.10;;;12.40;82.20;;;;;;4892262;29;20108;-80
2023/12/13 13:07:39;;;;;;;0.10;0.10;;;12.40;82.20;;;;;;4866395;29;20052;-80
2023/12/13 13:10:06;;;;;;;0.10;0.10;;;12.40;82.20;;;;;;4892391;29;20496;-80
2023/12/13 13:12:31;;;;;;;0.10;0.10;;;12.40;82.20;;;;;;4901377;29;20028;-80
2023/12/13 13:14:57;;;;;;;0.10;0.10;;;12.40;82.10;;;;;;4884300;29;20392;-80
2023/12/13 13:17:24;;;;;;;0.10;0.10;;;12.40;82.30;;;;;;4882801;29;20029;-80
2023/12/13 13:19:51;;;;;;;0.13;0.10;;;12.30;82.50;;;;;;4896113;29;20028;-80
2023/12/13 13:22:17;;;;;;;0.10;0.10;;;12.20;82.80;;;;;;4877163;29;20048;-80
2023/12/13 13:24:42;;;;;;;0.10;0.10;;;12.20;83.00;;;;;;4894355;29;20037;-80
2023/12/13 13:27:08;;;;;;;0.10;0.10;;;12.00;83.30;;;;;;4889288;29;20036;-80
2023/12/13 13:29:34;;;;;;;0.10;0.10;;;12.00;83.90;;;;;;4892779;29;20107;-80
2023/12/13 13:31:59;;;;;;;0.10;0.10;;;11.90;83.80;;;;;;4909130;29;20057;-80
2023/12/13 13:34:25;;;;;;;0.10;0.10;;;11.90;83.90;;;;;;4910281;29;20107;-80
2023/12/13 13:36:51;;;;;;;0.10;0.10;;;12.00;83.80;;;;;;4910263;29;20044;-80
2023/12/13 13:39:16;;;;;;;0.10;0.10;;;11.90;83.70;;;;;;4908660;29;20056;-80
2023/12/13 13:41:42;;;;;;;0.10;0.10;;;11.90;83.40;;;;;;4892197;29;20411;-80
2023/12/13 13:44:08;;;;;;;0.00;0.00;;;11.90;84.30;;;;;;4910802;29;20020;-80
2023/12/13 13:46:35;;;;;;;0.10;0.10;;;11.80;83.80;;;;;;4890418;29;20032;-80
2023/12/13 13:49:01;;;;;;;0.10;0.10;;;11.70;83.70;;;;;;4906399;29;20115;-80
2023/12/13 13:51:29;;;;;;;0.10;0.10;;;11.60;83.70;;;;;;4910390;29;20063;-80
2023/12/13 13:53:55;;;;;;;0.10;0.10;;;11.50;83.80;;;;;;4914743;29;20101;-80
2023/12/13 13:56:21;;;;;;;0.10;0.10;;;11.30;83.90;;;;;;4900345;29;20701;-80
2023/12/13 13:58:48;;;;;;;0.10;0.10;;;11.30;84.00;;;;;;4904352;29;20448;-80
2023/12/13 14:01:15;;;;;;;0.10;0.10;;;11.30;83.80;;;;;;4884057;29;20130;-80
2023/12/13 14:03:40;;;;;;;0.08;0.08;;;11.30;83.90;;;;;;4900550;29;20029;-80
2023/12/13 14:06:06;;;;;;;0.10;0.10;;;11.40;84.10;;;;;;4880372;29;20049;-80
2023/12/13 14:08:32;;;;;;;0.10;0.10;;;11.50;83.80;;;;;;4881261;29;20037;-80
2023/12/13 14:10:57;;;;;;;0.10;0.10;;;11.50;83.60;;;;;;4891896;29;20099;-80
2023/12/13 14:13:24;;;;;;;0.10;0.10;;;11.40;83.10;;;;;;4895809;29;20044;-80
2023/12/13 14:15:50;;;;;;;0.10;0.10;;;11.50;83.30;;;;;;4881958;29;20072;-80
2023/12/13 14:18:18;;;;;;;0.10;0.10;;;11.50;83.10;;;;;;4881710;29;20476;-80
2023/12/13 14:20:44;;;;;;;0.10;0.10;;;11.60;83.10;;;;;;4886241;29;20515;-80
2023/12/13 14:23:11;;;;;;;0.10;0.10;;;11.60;83.10;;;;;;4899069;29;20028;-80
2023/12/13 14:25:37;;;;;;;0.10;0.10;;;11.50;83.00;;;;;;4900492;29;20035;-80
2023/12/13 14:28:04;;;;;;;0.10;0.10;;;11.40;83.20;;;;;;4892141;29;20033;-80
2023/12/13 14:30:30;;;;;;;0.10;0.10;;;11.30;84.40;;;;;;4891583;29;20024;-80
2023/12/13 14:32:56;;;;;;;0.10;0.10;;;11.00;84.00;;;;;;4876452;29;20515;-80
2023/12/13 14:35:25;;;;;;;0.10;0.10;;;10.90;84.50;;;;;;4881113;29;20037;-80
2023/12/13 14:37:51;;;;;;;0.10;0.10;;;10.90;85.10;;;;;;4878996;29;20495;-80
2023/12/13 14:40:18;;;;;;;0.10;0.10;;;10.80;84.90;;;;;;4897284;29;20629;-80
2023/12/13 14:42:44;;;;;;;0.00;0.00;;;10.80;84.90;;;;;;4898853;29;20444;-80
2023/12/13 14:45:12;;;;;;;0.08;0.08;;;10.70;85.20;;;;;;4890281;29;20064;-80
2023/12/13 14:47:38;;;;;;;0.10;0.10;;;10.60;85.40;;;;;;4898724;29;20036;-80
2023/12/13 14:50:06;;;;;;;0.10;0.10;;;10.60;86.00;;;;;;4902629;29;20436;-80
2023/12/13 14:52:32;;;;;;;0.10;0.10;;;10.70;85.70;;;;;;4900474;29;20032;-80
2023/12/13 14:54:58;;;;;;;0.10;0.10;;;10.70;85.60;;;;;;4891847;29;20025;-80
2023/12/13 14:57:25;;;;;;;0.10;0.10;;;10.60;85.40;;;;;;4890647;29;20041;-80
2023/12/13 14:59:51;;;;;;;0.10;0.10;;;10.50;85.50;;;;;;4883695;29;20119;-80
2023/12/13 15:02:19;;;;;;;0.10;0.10;;;10.50;85.80;;;;;;4901198;29;20040;-80
2023/12/13 15:04:45;;;;;;;0.10;0.10;;;10.40;85.20;;;;;;4884547;29;20025;-80
2023/12/13 15:07:14;;;;;;;0.10;0.10;;;10.30;85.40;;;;;;4901624;29;20025;-80
2023/12/13 15:09:46;;;;;;;0.10;0.10;;;10.30;86.50;;;;;;4902383;29;20025;-80
2023/12/13 15:12:12;;;;;;;0.10;0.10;;;10.30;87.20;;;;;;4902639;29;20039;-81
2023/12/13 15:14:39;;;;;;;0.10;0.10;;;10.20;87.70;;;;;;4902976;29;20108;-80
2023/12/13 15:17:04;;;;;;;0.03;0.03;;;10.10;87.80;;;;;;4896744;29;20028;-80
2023/12/13 15:19:30;;;;;;;0.10;0.10;;;10.00;87.80;;;;;;4902198;29;20080;-80
2023/12/13 15:21:56;;;;;;;0.10;0.10;;;10.00;87.70;;;;;;4891962;29;20032;-80
2023/12/13 15:24:21;;;;;;;0.10;0.10;;;10.00;87.30;;;;;;4897827;29;20110;-79
2023/12/13 15:26:47;;;;;;;0.10;0.10;;;10.00;86.90;;;;;;4902124;29;20128;-81
2023/12/13 15:29:14;;;;;;;0.10;0.10;;;9.90;86.80;;;;;;4900537;29;20029;-81
2023/12/13 15:31:39;;;;;;;0.10;0.10;;;9.90;86.80;;;;;;4901649;29;20566;-81
2023/12/13 15:34:09;;;;;;;0.10;0.10;;;9.90;87.40;;;;;;4902308;29;20103;-79
2023/12/13 15:36:34;;;;;;;0.10;0.10;;;9.90;87.00;;;;;;4902394;29;20084;-80
2023/12/13 15:39:04;;;;;;;0.10;0.10;;;9.90;86.80;;;;;;4898078;29;20104;-80
2023/12/13 15:41:29;;;;;;;0.10;0.10;;;10.00;87.20;;;;;;4899856;29;20137;-80
2023/12/13 15:43:55;;;;;;;0.10;0.10;;;9.90;87.10;;;;;;4901978;29;20052;-80
2023/12/13 15:46:22;;;;;;;0.10;0.10;;;10.00;86.80;;;;;;4901547;29;20480;-79
2023/12/13 15:48:48;;;;;;;0.10;0.10;;;10.00;86.80;;;;;;4901976;29;20025;-79
2023/12/13 15:51:13;;;;;;;0.10;0.10;;;10.00;86.80;;;;;;4902285;29;20024;-80
2023/12/13 15:53:39;;;;;;;0.10;0.10;;;10.00;86.50;;;;;;4878802;29;20432;-80
2023/12/13 15:56:05;;;;;;;0.10;0.10;;;9.90;86.90;;;;;;4884879;29;20025;-82
2023/12/13 15:58:31;;;;;;;0.10;0.10;;;10.00;86.80;;;;;;4901915;29;20033;-77
2023/12/13 16:00:57;;;;;;;0.10;0.10;;;10.00;86.80;;;;;;4902568;29;20040;-79
2023/12/13 16:03:22;;;;;;;0.10;0.10;;;9.90;86.80;;;;;;4880987;29;20029;-79
2023/12/13 16:05:50;;;;;;;0.10;0.10;;;10.00;86.90;;;;;;4901732;29;20029;-78
2023/12/13 16:08:16;;;;;;;0.10;0.10;;;9.90;86.70;;;;;;4899470;29;20031;-79
2023/12/13 16:10:45;;;;;;;0.10;0.10;;;9.80;86.80;;;;;;4901379;29;20024;-78
2023/12/13 16:13:10;;;;;;;0.10;0.10;;;9.90;86.90;;;;;;4901679;29;20479;-79
2023/12/13 16:15:36;;;;;;;0.10;0.10;;;9.90;87.00;;;;;;4901353;29;20025;-79
2023/12/13 16:18:01;;;;;;;0.10;0.10;;;9.90;87.10;;;;;;4898980;29;20043;-79
2023/12/13 16:20:27;;;;;;;0.10;0.10;;;9.80;87.00;;;;;;4901557;29;20149;-79
2023/12/13 16:22:55;;;;;;;0.13;0.13;;;9.80;86.90;;;;;;4884592;29;20032;-79
2023/12/13 16:25:21;;;;;;;0.10;0.10;;;9.90;87.20;;;;;;4901906;29;20427;-78
2023/12/13 16:27:47;;;;;;;0.10;0.10;;;9.80;87.10;;;;;;4900469;29;20029;-79
2023/12/13 16:30:13;;;;;;;0.10;0.10;;;9.90;87.00;;;;;;4901080;29;20033;-79
2023/12/13 16:32:40;;;;;;;0.10;0.10;;;9.90;87.00;;;;;;4902029;29;20056;-79
2023/12/13 16:35:07;;;;;;;0.10;0.10;;;9.90;87.00;;;;;;4901385;29;20017;-79
2023/12/13 16:37:36;;;;;;;0.10;0.10;;;10.00;87.10;;;;;;4876392;29;20068;-79
2023/12/13 16:40:02;;;;;;;0.10;0.10;;;9.90;86.40;;;;;;4876065;29;20028;-79
2023/12/13 16:42:27;;;;;;;0.10;0.10;;;9.90;86.50;;;;;;4902796;29;20063;-79
2023/12/13 16:44:53;;;;;;;0.10;0.10;;;9.70;86.10;;;;;;4900703;29;20032;-78
2023/12/13 16:47:19;;;;;;;0.10;0.10;;;9.70;86.40;;;;;;4898946;29;20036;-78
2023/12/13 16:49:47;;;;;;;0.10;0.10;;;9.70;86.60;;;;;;4888131;29;20025;-79
2023/12/13 16:52:14;;;;;;;0.10;0.10;;;9.60;86.10;;;;;;4899891;29;20103;-79
2023/12/13 16:54:41;;;;;;;0.10;0.10;;;9.70;86.50;;;;;;4883929;29;20031;-79
2023/12/13 16:57:08;;;;;;;0.10;0.10;;;9.60;86.00;;;;;;4895826;29;20092;-81
2023/12/13 16:59:34;;;;;;;0.10;0.10;;;9.50;86.30;;;;;;4893287;29;20104;-81
2023/12/13 17:02:00;;;;;;;0.10;0.10;;;9.40;86.50;;;;;;4892071;29;20067;-81
2023/12/13 17:04:26;;;;;;;0.10;0.10;;;9.50;86.80;;;;;;4883680;29;20479;-80
2023/12/13 17:06:51;;;;;;;0.10;0.10;;;9.40;86.70;;;;;;4900162;29;20028;-80
2023/12/13 17:09:18;;;;;;;0.10;0.10;;;9.30;86.40;;;;;;4881182;29;20028;-81
2023/12/13 17:11:44;;;;;;;0.10;0.10;;;9.30;86.80;;;;;;4882162;29;20509;-81
2023/12/13 17:14:09;;;;;;;0.03;0.03;;;9.30;87.00;;;;;;4900605;29;20107;-81
2023/12/13 17:16:35;;;;;;;0.10;0.10;;;9.40;87.10;;;;;;4898242;29;20053;-81
2023/12/13 17:19:00;;;;;;;0.10;0.10;;;9.40;86.80;;;;;;4900777;29;20104;-81
2023/12/13 17:21:27;;;;;;;0.10;0.10;;;9.30;86.80;;;;;;4883236;29;20036;-81
2023/12/13 17:23:52;;;;;;;0.10;0.10;;;9.30;87.00;;;;;;4899737;29;20493;-80
2023/12/13 17:26:19;;;;;;;0.10;0.10;;;9.30;87.00;;;;;;4894573;29;20076;-80
2023/12/13 17:28:45;;;;;;;0.10;0.10;;;9.40;87.00;;;;;;4900232;29;20055;-80
2023/12/13 17:31:11;;;;;;;0.10;0.10;;;9.50;87.30;;;;;;4882906;29;20048;-81
2023/12/13 17:33:36;;;;;;;0.10;0.10;;;9.40;86.90;;;;;;4882462;29;20033;-81
2023/12/13 17:36:02;;;;;;;0.10;0.10;;;9.40;86.80;;;;;;4883752;29;20056;-81
2023/12/13 17:38:29;;;;;;;0.10;0.10;;;9.40;86.80;;;;;;4899694;29;20076;-81
2023/12/13 17:40:55;;;;;;;0.10;0.10;;;9.50;87.00;;;;;;4905312;29;20021;-82
2023/12/13 17:43:21;;;;;;;0.10;0.10;;;9.50;87.00;;;;;;4882141;29;20032;-81
2023/12/13 17:45:46;;;;;;;0.10;0.10;;;9.50;87.10;;;;;;4900681;29;20499;-81
2023/12/13 17:48:12;;;;;;;0.10;0.10;;;9.50;87.00;;;;;;4895376;29;20501;-82
2023/12/13 17:50:38;;;;;;;0.10;0.10;;;9.50;86.90;;;;;;4899582;29;20507;-82
2023/12/13 17:53:07;;;;;;;0.10;0.10;;;9.40;87.00;;;;;;4897672;29;20044;-83
2023/12/13 17:55:33;;;;;;;0.10;0.10;;;9.40;87.00;;;;;;4892585;29;20115;-80
2023/12/13 17:57:58;;;;;;;0.10;0.10;;;9.30;86.70;;;;;;4899518;29;20060;-79
2023/12/13 18:00:28;;;;;;;0.10;0.10;;;9.30;86.90;;;;;;4882517;29;20480;-80
2023/12/13 18:02:54;;;;;;;0.10;0.10;;;9.30;86.90;;;;;;4881385;29;20048;-80
2023/12/13 18:05:20;;;;;;;0.10;0.10;;;9.30;87.10;;;;;;4898720;29;20592;-80
2023/12/13 18:07:46;;;;;;;0.10;0.10;;;9.30;86.90;;;;;;4898511;29;20029;-80
2023/12/13 18:10:11;;;;;;;0.10;0.10;;;9.30;87.10;;;;;;4882375;29;20057;-80
2023/12/13 18:12:37;;;;;;;0.10;0.10;;;9.30;86.70;;;;;;4883274;29;20032;-80
2023/12/13 18:15:03;;;;;;;0.10;0.10;;;9.30;86.70;;;;;;4881225;29;20041;-80
2023/12/13 18:17:30;;;;;;;0.10;0.10;;;9.30;86.80;;;;;;4883410;29;20030;-80